sensor_id;sensor_type;location;lat;lon;timestamp;noise_LAeq;noise_LA_min;noise_LA_max;noise_LA01;noise_LA95
81666;Laerm;71083;51.796;10.952;2024-03-07T00:00:20;30.92;27.80;40.62;;
81666;Laerm;71083;51.796;10.952;2024-03-07T00:02:47;52.77;29.65;69.34;;
81666;Laerm;71083;51.796;10.952;2024-03-07T00:05:13;58.62;30.85;71.72;;
81666;Laerm;71083;51.796;10.952;2024-03-07T00:07:39;54.98;28.41;73.08;;
81666;Laerm;71083;51.796;10.952;2024-03-07T00:10:05;51.20;27.83;67.47;;
81666;Laerm;71083;51.796;10.952;2024-03-07T00:12:32;33.40;28.41;43.77;;
81666;Laerm;71083;51.796;10.952;2024-03-07T00:14:58;60.69;28.43;77.44;;
81666;Laerm;71083;51.796;10.952;2024-03-07T00:17:23;32.77;28.14;41.03;;
81666;Laerm;71083;51.796;10.952;2024-03-07T00:19:48;30.04;27.81;41.87;;
81666;Laerm;71083;51.796;10.952;2024-03-07T00:22:14;51.45;28.89;67.39;;
81666;Laerm;71083;51.796;10.952;2024-03-07T00:24:40;31.79;28.26;41.28;;
81666;Laerm;71083;51.796;10.952;2024-03-07T00:27:05;57.63;28.27;74.22;;
81666;Laerm;71083;51.796;10.952;2024-03-07T00:29:30;55.31;29.61;72.60;;
81666;Laerm;71083;51.796;10.952;2024-03-07T00:31:56;52.46;29.20;68.48;;
81666;Laerm;71083;51.796;10.952;2024-03-07T00:34:21;53.21;28.71;70.45;;
81666;Laerm;71083;51.796;10.952;2024-03-07T00:36:48;58.64;29.48;76.78;;
81666;Laerm;71083;51.796;10.952;2024-03-07T00:39:13;56.42;28.37;73.93;;
81666;Laerm;71083;51.796;10.952;2024-03-07T00:41:39;56.13;28.81;73.36;;
81666;Laerm;71083;51.796;10.952;2024-03-07T00:44:04;52.77;29.70;69.88;;
81666;Laerm;71083;51.796;10.952;2024-03-07T00:46:30;58.26;28.95;71.89;;
81666;Laerm;71083;51.796;10.952;2024-03-07T00:48:55;36.73;28.18;46.14;;
81666;Laerm;71083;51.796;10.952;2024-03-07T00:51:21;56.77;29.49;74.55;;
81666;Laerm;71083;51.796;10.952;2024-03-07T00:53:47;60.15;29.36;75.58;;
81666;Laerm;71083;51.796;10.952;2024-03-07T00:56:13;31.42;28.94;40.90;;
81666;Laerm;71083;51.796;10.952;2024-03-07T00:58:39;33.28;29.80;39.88;;
81666;Laerm;71083;51.796;10.952;2024-03-07T01:01:04;34.95;30.64;41.45;;
81666;Laerm;71083;51.796;10.952;2024-03-07T01:03:29;36.07;29.05;46.61;;
81666;Laerm;71083;51.796;10.952;2024-03-07T01:05:55;38.06;30.28;49.25;;
81666;Laerm;71083;51.796;10.952;2024-03-07T01:08:20;34.20;30.32;42.01;;
81666;Laerm;71083;51.796;10.952;2024-03-07T01:10:45;58.20;31.30;72.07;;
81666;Laerm;71083;51.796;10.952;2024-03-07T01:13:10;55.34;31.31;72.90;;
81666;Laerm;71083;51.796;10.952;2024-03-07T01:15:44;54.76;30.70;72.98;;
81666;Laerm;71083;51.796;10.952;2024-03-07T01:18:09;32.09;29.37;38.00;;
81666;Laerm;71083;51.796;10.952;2024-03-07T01:20:34;53.21;30.41;70.13;;
81666;Laerm;71083;51.796;10.952;2024-03-07T01:23:00;36.89;33.02;42.34;;
81666;Laerm;71083;51.796;10.952;2024-03-07T01:25:26;34.70;30.16;41.92;;
81666;Laerm;71083;51.796;10.952;2024-03-07T01:27:52;32.57;28.74;38.30;;
81666;Laerm;71083;51.796;10.952;2024-03-07T01:30:17;32.06;29.50;42.64;;
81666;Laerm;71083;51.796;10.952;2024-03-07T01:32:43;59.96;28.67;79.42;;
81666;Laerm;71083;51.796;10.952;2024-03-07T01:35:09;54.19;28.71;71.56;;
81666;Laerm;71083;51.796;10.952;2024-03-07T01:37:35;58.94;28.99;77.06;;
81666;Laerm;71083;51.796;10.952;2024-03-07T01:40:00;35.18;30.87;48.33;;
81666;Laerm;71083;51.796;10.952;2024-03-07T01:42:28;33.22;28.64;40.57;;
81666;Laerm;71083;51.796;10.952;2024-03-07T01:44:53;53.15;29.47;69.57;;
81666;Laerm;71083;51.796;10.952;2024-03-07T01:47:19;32.53;29.25;37.93;;
81666;Laerm;71083;51.796;10.952;2024-03-07T01:49:44;54.27;31.28;70.39;;
81666;Laerm;71083;51.796;10.952;2024-03-07T01:52:09;61.41;32.14;73.45;;
81666;Laerm;71083;51.796;10.952;2024-03-07T01:54:35;34.14;30.78;38.80;;
81666;Laerm;71083;51.796;10.952;2024-03-07T01:57:01;53.27;32.03;70.94;;
81666;Laerm;71083;51.796;10.952;2024-03-07T01:59:26;50.17;37.71;65.91;;
81666;Laerm;71083;51.796;10.952;2024-03-07T02:01:55;33.52;28.03;50.85;;
81666;Laerm;71083;51.796;10.952;2024-03-07T02:04:20;50.08;27.91;65.55;;
81666;Laerm;71083;51.796;10.952;2024-03-07T02:06:45;31.30;29.15;34.87;;
81666;Laerm;71083;51.796;10.952;2024-03-07T02:09:10;33.08;30.45;40.40;;
81666;Laerm;71083;51.796;10.952;2024-03-07T02:11:36;37.15;33.85;43.80;;
81666;Laerm;71083;51.796;10.952;2024-03-07T02:14:01;35.22;31.64;40.08;;
81666;Laerm;71083;51.796;10.952;2024-03-07T02:16:27;46.31;31.55;58.75;;
81666;Laerm;71083;51.796;10.952;2024-03-07T02:18:52;49.03;28.95;65.56;;
81666;Laerm;71083;51.796;10.952;2024-03-07T02:21:19;36.81;29.43;45.71;;
81666;Laerm;71083;51.796;10.952;2024-03-07T02:23:45;32.90;29.22;38.94;;
81666;Laerm;71083;51.796;10.952;2024-03-07T02:26:10;49.25;30.52;64.93;;
81666;Laerm;71083;51.796;10.952;2024-03-07T02:28:35;34.72;31.42;43.86;;
81666;Laerm;71083;51.796;10.952;2024-03-07T02:31:01;60.68;32.43;78.93;;
81666;Laerm;71083;51.796;10.952;2024-03-07T02:33:26;39.62;32.64;48.97;;
81666;Laerm;71083;51.796;10.952;2024-03-07T02:35:51;51.23;31.67;67.37;;
81666;Laerm;71083;51.796;10.952;2024-03-07T02:38:17;61.52;34.43;77.83;;
81666;Laerm;71083;51.796;10.952;2024-03-07T02:40:43;37.69;33.96;47.20;;
81666;Laerm;71083;51.796;10.952;2024-03-07T02:43:08;59.33;33.98;75.22;;
81666;Laerm;71083;51.796;10.952;2024-03-07T02:45:33;36.24;32.40;41.74;;
81666;Laerm;71083;51.796;10.952;2024-03-07T02:47:59;51.97;34.25;68.90;;
81666;Laerm;71083;51.796;10.952;2024-03-07T02:50:24;36.57;32.71;43.99;;
81666;Laerm;71083;51.796;10.952;2024-03-07T02:52:49;60.77;32.12;78.61;;
81666;Laerm;71083;51.796;10.952;2024-03-07T02:55:15;54.61;32.04;71.16;;
81666;Laerm;71083;51.796;10.952;2024-03-07T02:57:40;53.71;30.57;69.64;;
81666;Laerm;71083;51.796;10.952;2024-03-07T03:00:06;52.20;31.19;67.34;;
81666;Laerm;71083;51.796;10.952;2024-03-07T03:02:44;34.73;29.98;50.98;;
81666;Laerm;71083;51.796;10.952;2024-03-07T03:05:10;37.13;29.86;51.63;;
81666;Laerm;71083;51.796;10.952;2024-03-07T03:07:35;62.73;34.76;81.78;;
81666;Laerm;71083;51.796;10.952;2024-03-07T03:10:01;55.98;33.98;69.07;;
81666;Laerm;71083;51.796;10.952;2024-03-07T03:12:26;68.10;32.41;80.78;;
81666;Laerm;71083;51.796;10.952;2024-03-07T03:14:51;59.66;33.85;70.44;;
81666;Laerm;71083;51.796;10.952;2024-03-07T03:17:18;55.07;33.13;69.11;;
81666;Laerm;71083;51.796;10.952;2024-03-07T03:19:43;55.20;31.71;70.27;;
81666;Laerm;71083;51.796;10.952;2024-03-07T03:22:08;53.23;31.51;68.27;;
81666;Laerm;71083;51.796;10.952;2024-03-07T03:24:34;59.49;34.11;74.21;;
81666;Laerm;71083;51.796;10.952;2024-03-07T03:27:00;45.29;33.74;63.08;;
81666;Laerm;71083;51.796;10.952;2024-03-07T03:29:26;60.08;32.33;73.93;;
81666;Laerm;71083;51.796;10.952;2024-03-07T03:31:54;63.80;33.75;78.82;;
81666;Laerm;71083;51.796;10.952;2024-03-07T03:34:19;64.21;33.93;78.52;;
81666;Laerm;71083;51.796;10.952;2024-03-07T03:36:45;61.55;35.75;75.52;;
81666;Laerm;71083;51.796;10.952;2024-03-07T03:39:10;61.87;34.15;76.71;;
81666;Laerm;71083;51.796;10.952;2024-03-07T03:41:38;63.69;33.16;78.12;;
81666;Laerm;71083;51.796;10.952;2024-03-07T03:44:03;62.37;33.12;76.76;;
81666;Laerm;71083;51.796;10.952;2024-03-07T03:46:29;58.08;33.35;72.92;;
81666;Laerm;71083;51.796;10.952;2024-03-07T03:48:54;61.22;30.92;76.83;;
81666;Laerm;71083;51.796;10.952;2024-03-07T03:51:19;62.54;35.54;74.41;;
81666;Laerm;71083;51.796;10.952;2024-03-07T03:53:46;60.73;35.12;71.59;;
81666;Laerm;71083;51.796;10.952;2024-03-07T03:56:12;60.34;36.52;73.50;;
81666;Laerm;71083;51.796;10.952;2024-03-07T03:58:39;64.08;34.26;77.36;;
81666;Laerm;71083;51.796;10.952;2024-03-07T04:01:04;60.96;35.59;74.42;;
81666;Laerm;71083;51.796;10.952;2024-03-07T04:03:33;55.98;33.86;67.47;;
81666;Laerm;71083;51.796;10.952;2024-03-07T04:05:58;59.53;34.51;76.99;;
81666;Laerm;71083;51.796;10.952;2024-03-07T04:08:24;64.59;34.26;74.26;;
81666;Laerm;71083;51.796;10.952;2024-03-07T04:10:49;56.86;35.20;68.12;;
81666;Laerm;71083;51.796;10.952;2024-03-07T04:13:14;61.85;38.86;71.87;;
81666;Laerm;71083;51.796;10.952;2024-03-07T04:15:40;64.94;39.11;80.58;;
81666;Laerm;71083;51.796;10.952;2024-03-07T04:18:05;63.55;39.26;75.56;;
81666;Laerm;71083;51.796;10.952;2024-03-07T04:20:30;65.97;43.15;75.65;;
81666;Laerm;71083;51.796;10.952;2024-03-07T04:22:56;64.38;38.31;77.24;;
81666;Laerm;71083;51.796;10.952;2024-03-07T04:25:21;64.04;41.39;75.54;;
81666;Laerm;71083;51.796;10.952;2024-03-07T04:27:46;65.30;38.88;75.72;;
81666;Laerm;71083;51.796;10.952;2024-03-07T04:30:14;66.82;44.10;75.12;;
81666;Laerm;71083;51.796;10.952;2024-03-07T04:32:41;63.58;41.60;77.27;;
81666;Laerm;71083;51.796;10.952;2024-03-07T04:35:07;65.85;43.25;78.30;;
81666;Laerm;71083;51.796;10.952;2024-03-07T04:37:33;64.07;41.77;75.65;;
81666;Laerm;71083;51.796;10.952;2024-03-07T04:40:02;67.82;47.51;80.25;;
81666;Laerm;71083;51.796;10.952;2024-03-07T04:42:29;64.60;48.33;72.93;;
81666;Laerm;71083;51.796;10.952;2024-03-07T04:44:55;60.50;38.47;72.39;;
81666;Laerm;71083;51.796;10.952;2024-03-07T04:47:21;66.29;43.87;75.11;;
81666;Laerm;71083;51.796;10.952;2024-03-07T04:49:46;67.05;43.20;74.75;;
81666;Laerm;71083;51.796;10.952;2024-03-07T04:52:12;65.98;46.74;76.49;;
81666;Laerm;71083;51.796;10.952;2024-03-07T04:54:37;63.28;41.90;74.71;;
81666;Laerm;71083;51.796;10.952;2024-03-07T04:57:02;66.83;41.43;76.90;;
81666;Laerm;71083;51.796;10.952;2024-03-07T04:59:27;64.65;44.35;74.84;;
81666;Laerm;71083;51.796;10.952;2024-03-07T05:01:53;65.34;44.05;78.20;;
81666;Laerm;71083;51.796;10.952;2024-03-07T05:04:18;64.51;40.66;75.34;;
81666;Laerm;71083;51.796;10.952;2024-03-07T05:06:43;65.86;44.66;78.48;;
81666;Laerm;71083;51.796;10.952;2024-03-07T05:09:09;67.01;48.82;78.36;;
81666;Laerm;71083;51.796;10.952;2024-03-07T05:11:36;64.54;41.11;74.53;;
81666;Laerm;71083;51.796;10.952;2024-03-07T05:14:02;67.37;44.54;77.47;;
81666;Laerm;71083;51.796;10.952;2024-03-07T05:16:28;64.59;45.40;76.80;;
81666;Laerm;71083;51.796;10.952;2024-03-07T05:18:53;67.49;54.17;76.69;;
81666;Laerm;71083;51.796;10.952;2024-03-07T05:21:20;67.09;41.57;76.81;;
81666;Laerm;71083;51.796;10.952;2024-03-07T05:24:02;64.73;42.80;74.03;;
81666;Laerm;71083;51.796;10.952;2024-03-07T05:26:30;66.12;49.54;74.50;;
81666;Laerm;71083;51.796;10.952;2024-03-07T05:29:08;67.94;56.34;80.19;;
81666;Laerm;71083;51.796;10.952;2024-03-07T05:31:34;68.74;50.19;87.89;;
81666;Laerm;71083;51.796;10.952;2024-03-07T05:34:00;67.66;46.11;78.94;;
81666;Laerm;71083;51.796;10.952;2024-03-07T05:36:28;69.33;49.35;76.34;;
81666;Laerm;71083;51.796;10.952;2024-03-07T05:38:54;66.26;55.18;77.81;;
81666;Laerm;71083;51.796;10.952;2024-03-07T05:41:19;68.51;44.71;80.20;;
81666;Laerm;71083;51.796;10.952;2024-03-07T05:43:44;67.94;52.29;81.14;;
81666;Laerm;71083;51.796;10.952;2024-03-07T05:46:10;67.81;47.06;78.81;;
81666;Laerm;71083;51.796;10.952;2024-03-07T05:48:36;68.41;47.51;76.17;;
81666;Laerm;71083;51.796;10.952;2024-03-07T05:51:01;68.95;45.17;80.98;;
81666;Laerm;71083;51.796;10.952;2024-03-07T05:53:27;68.88;48.39;81.66;;
81666;Laerm;71083;51.796;10.952;2024-03-07T05:55:52;69.73;51.33;80.21;;
81666;Laerm;71083;51.796;10.952;2024-03-07T05:58:17;66.73;48.73;78.18;;
81666;Laerm;71083;51.796;10.952;2024-03-07T06:00:44;65.91;49.52;74.94;;
81666;Laerm;71083;51.796;10.952;2024-03-07T06:03:14;70.44;56.44;87.11;;
81666;Laerm;71083;51.796;10.952;2024-03-07T06:05:41;68.26;53.01;75.78;;
81666;Laerm;71083;51.796;10.952;2024-03-07T06:08:08;69.60;52.62;80.09;;
81666;Laerm;71083;51.796;10.952;2024-03-07T06:10:33;68.27;49.66;80.10;;
81666;Laerm;71083;51.796;10.952;2024-03-07T06:12:58;66.97;52.06;76.95;;
81666;Laerm;71083;51.796;10.952;2024-03-07T06:15:24;69.58;48.69;76.72;;
81666;Laerm;71083;51.796;10.952;2024-03-07T06:17:50;68.73;50.51;76.78;;
81666;Laerm;71083;51.796;10.952;2024-03-07T06:20:15;68.79;55.47;76.96;;
81666;Laerm;71083;51.796;10.952;2024-03-07T06:22:50;69.49;55.44;77.05;;
81666;Laerm;71083;51.796;10.952;2024-03-07T06:25:18;64.90;50.38;73.10;;
81666;Laerm;71083;51.796;10.952;2024-03-07T06:27:59;69.74;55.19;78.51;;
81666;Laerm;71083;51.796;10.952;2024-03-07T06:30:33;70.57;55.55;86.78;;
81666;Laerm;71083;51.796;10.952;2024-03-07T06:32:58;67.21;48.46;76.34;;
81666;Laerm;71083;51.796;10.952;2024-03-07T06:35:24;68.04;52.79;75.22;;
81666;Laerm;71083;51.796;10.952;2024-03-07T06:37:49;68.50;49.28;81.01;;
81666;Laerm;71083;51.796;10.952;2024-03-07T06:40:14;69.52;59.01;75.52;;
81666;Laerm;71083;51.796;10.952;2024-03-07T06:42:46;69.35;51.39;85.93;;
81666;Laerm;71083;51.796;10.952;2024-03-07T06:45:11;68.29;51.97;77.85;;
81666;Laerm;71083;51.796;10.952;2024-03-07T06:47:37;66.03;46.38;75.52;;
81666;Laerm;71083;51.796;10.952;2024-03-07T06:50:02;68.33;56.15;76.09;;
81666;Laerm;71083;51.796;10.952;2024-03-07T06:52:28;65.47;49.33;73.00;;
81666;Laerm;71083;51.796;10.952;2024-03-07T06:54:53;64.44;48.31;72.48;;
81666;Laerm;71083;51.796;10.952;2024-03-07T06:57:18;69.61;47.59;85.68;;
81666;Laerm;71083;51.796;10.952;2024-03-07T06:59:44;67.47;56.29;74.82;;
81666;Laerm;71083;51.796;10.952;2024-03-07T07:02:09;69.14;56.91;81.32;;
81666;Laerm;71083;51.796;10.952;2024-03-07T07:04:34;67.42;50.58;77.19;;
81666;Laerm;71083;51.796;10.952;2024-03-07T07:07:09;65.43;50.80;77.18;;
81666;Laerm;71083;51.796;10.952;2024-03-07T07:09:38;68.71;52.31;78.64;;
81666;Laerm;71083;51.796;10.952;2024-03-07T07:12:03;68.92;47.33;81.35;;
81666;Laerm;71083;51.796;10.952;2024-03-07T07:14:29;66.77;50.90;76.74;;
81666;Laerm;71083;51.796;10.952;2024-03-07T07:16:54;68.48;54.18;76.37;;
81666;Laerm;71083;51.796;10.952;2024-03-07T07:19:21;65.74;48.33;75.13;;
81666;Laerm;71083;51.796;10.952;2024-03-07T07:21:46;68.13;47.66;80.18;;
81666;Laerm;71083;51.796;10.952;2024-03-07T07:24:12;69.35;48.73;78.54;;
81666;Laerm;71083;51.796;10.952;2024-03-07T07:26:37;66.55;49.86;75.72;;
81666;Laerm;71083;51.796;10.952;2024-03-07T07:29:03;65.91;47.51;74.72;;
81666;Laerm;71083;51.796;10.952;2024-03-07T07:31:29;67.03;48.83;74.85;;
81666;Laerm;71083;51.796;10.952;2024-03-07T07:33:57;68.31;49.24;79.98;;
81666;Laerm;71083;51.796;10.952;2024-03-07T07:36:22;68.70;46.93;80.30;;
81666;Laerm;71083;51.796;10.952;2024-03-07T07:38:48;67.89;50.21;79.58;;
81666;Laerm;71083;51.796;10.952;2024-03-07T07:41:13;69.38;52.28;77.07;;
81666;Laerm;71083;51.796;10.952;2024-03-07T07:43:39;64.71;48.49;74.31;;
81666;Laerm;71083;51.796;10.952;2024-03-07T07:46:04;67.98;44.37;81.96;;
81666;Laerm;71083;51.796;10.952;2024-03-07T07:48:30;69.70;53.00;88.22;;
81666;Laerm;71083;51.796;10.952;2024-03-07T07:50:55;85.69;47.47;103.92;;
81666;Laerm;71083;51.796;10.952;2024-03-07T07:53:20;76.05;58.93;94.93;;
81666;Laerm;71083;51.796;10.952;2024-03-07T07:55:46;70.27;52.09;84.58;;
81666;Laerm;71083;51.796;10.952;2024-03-07T07:58:11;66.10;52.06;75.98;;
81666;Laerm;71083;51.796;10.952;2024-03-07T08:00:37;67.66;48.94;83.95;;
81666;Laerm;71083;51.796;10.952;2024-03-07T08:03:03;70.47;54.29;84.41;;
81666;Laerm;71083;51.796;10.952;2024-03-07T08:05:30;65.97;51.26;72.35;;
81666;Laerm;71083;51.796;10.952;2024-03-07T08:07:57;64.66;47.82;75.77;;
81666;Laerm;71083;51.796;10.952;2024-03-07T08:10:23;67.87;47.19;77.59;;
81666;Laerm;71083;51.796;10.952;2024-03-07T08:12:49;67.88;51.93;80.63;;
81666;Laerm;71083;51.796;10.952;2024-03-07T08:15:14;68.18;51.74;75.00;;
81666;Laerm;71083;51.796;10.952;2024-03-07T08:17:43;66.16;47.25;74.00;;
81666;Laerm;71083;51.796;10.952;2024-03-07T08:20:12;68.23;56.32;77.77;;
81666;Laerm;71083;51.796;10.952;2024-03-07T08:22:38;66.35;55.06;74.82;;
81666;Laerm;71083;51.796;10.952;2024-03-07T08:25:05;68.98;49.72;79.74;;
81666;Laerm;71083;51.796;10.952;2024-03-07T08:27:34;67.79;51.64;78.57;;
81666;Laerm;71083;51.796;10.952;2024-03-07T08:30:00;67.34;53.49;75.40;;
81666;Laerm;71083;51.796;10.952;2024-03-07T08:32:25;66.62;54.15;74.10;;
81666;Laerm;71083;51.796;10.952;2024-03-07T08:34:51;68.48;45.81;74.83;;
81666;Laerm;71083;51.796;10.952;2024-03-07T08:37:16;69.85;51.88;83.13;;
81666;Laerm;71083;51.796;10.952;2024-03-07T08:39:42;70.47;48.69;81.73;;
81666;Laerm;71083;51.796;10.952;2024-03-07T08:42:08;68.55;54.04;83.30;;
81666;Laerm;71083;51.796;10.952;2024-03-07T08:44:33;68.38;54.41;76.49;;
81666;Laerm;71083;51.796;10.952;2024-03-07T08:46:58;69.12;54.78;80.92;;
81666;Laerm;71083;51.796;10.952;2024-03-07T08:49:24;65.45;46.35;73.49;;
81666;Laerm;71083;51.796;10.952;2024-03-07T08:51:49;68.10;49.89;76.12;;
81666;Laerm;71083;51.796;10.952;2024-03-07T08:54:14;66.59;45.12;73.72;;
81666;Laerm;71083;51.796;10.952;2024-03-07T08:56:40;69.16;52.92;80.60;;
81666;Laerm;71083;51.796;10.952;2024-03-07T08:59:06;68.81;54.27;85.77;;
81666;Laerm;71083;51.796;10.952;2024-03-07T09:01:31;67.81;51.74;81.06;;
81666;Laerm;71083;51.796;10.952;2024-03-07T09:03:56;66.09;49.80;73.44;;
81666;Laerm;71083;51.796;10.952;2024-03-07T09:06:24;69.50;48.27;83.64;;
81666;Laerm;71083;51.796;10.952;2024-03-07T09:08:49;69.21;52.85;80.69;;
81666;Laerm;71083;51.796;10.952;2024-03-07T09:11:15;67.99;45.66;78.58;;
81666;Laerm;71083;51.796;10.952;2024-03-07T09:13:40;84.81;53.80;103.48;;
81666;Laerm;71083;51.796;10.952;2024-03-07T09:16:06;63.82;47.66;75.92;;
81666;Laerm;71083;51.796;10.952;2024-03-07T09:18:32;67.51;49.39;80.08;;
81666;Laerm;71083;51.796;10.952;2024-03-07T09:20:57;66.90;51.49;76.50;;
81666;Laerm;71083;51.796;10.952;2024-03-07T09:23:23;67.60;48.77;77.44;;
81666;Laerm;71083;51.796;10.952;2024-03-07T09:25:48;67.08;49.18;76.34;;
81666;Laerm;71083;51.796;10.952;2024-03-07T09:28:13;68.30;54.17;77.69;;
81666;Laerm;71083;51.796;10.952;2024-03-07T09:30:40;68.75;55.27;79.63;;
81666;Laerm;71083;51.796;10.952;2024-03-07T09:33:08;68.04;50.07;77.98;;
81666;Laerm;71083;51.796;10.952;2024-03-07T09:35:36;67.96;54.42;75.59;;
81666;Laerm;71083;51.796;10.952;2024-03-07T09:38:02;67.34;51.72;76.05;;
81666;Laerm;71083;51.796;10.952;2024-03-07T09:40:27;66.96;47.78;76.62;;
81666;Laerm;71083;51.796;10.952;2024-03-07T09:42:53;67.89;53.19;74.30;;
81666;Laerm;71083;51.796;10.952;2024-03-07T09:45:21;68.60;53.35;79.68;;
81666;Laerm;71083;51.796;10.952;2024-03-07T09:47:49;68.42;55.09;78.60;;
81666;Laerm;71083;51.796;10.952;2024-03-07T09:50:16;69.81;50.11;79.21;;
81666;Laerm;71083;51.796;10.952;2024-03-07T09:52:44;67.31;55.52;75.53;;
81666;Laerm;71083;51.796;10.952;2024-03-07T09:55:10;67.36;55.45;75.03;;
81666;Laerm;71083;51.796;10.952;2024-03-07T09:57:36;68.63;53.67;77.52;;
81666;Laerm;71083;51.796;10.952;2024-03-07T10:00:02;68.63;48.24;84.79;;
81666;Laerm;71083;51.796;10.952;2024-03-07T10:02:28;68.45;56.77;75.88;;
81666;Laerm;71083;51.796;10.952;2024-03-07T10:04:54;68.28;56.36;75.38;;
81666;Laerm;71083;51.796;10.952;2024-03-07T10:07:20;68.87;54.40;76.35;;
81666;Laerm;71083;51.796;10.952;2024-03-07T10:09:45;67.06;52.13;80.02;;
81666;Laerm;71083;51.796;10.952;2024-03-07T10:12:10;67.19;52.38;75.26;;
81666;Laerm;71083;51.796;10.952;2024-03-07T10:14:38;68.13;50.21;75.47;;
81666;Laerm;71083;51.796;10.952;2024-03-07T10:17:03;67.97;52.62;79.01;;
81666;Laerm;71083;51.796;10.952;2024-03-07T10:19:29;67.82;51.46;78.53;;
81666;Laerm;71083;51.796;10.952;2024-03-07T10:21:55;68.43;49.93;74.97;;
81666;Laerm;71083;51.796;10.952;2024-03-07T10:24:24;68.85;52.61;79.43;;
81666;Laerm;71083;51.796;10.952;2024-03-07T10:26:50;66.09;51.06;76.17;;
81666;Laerm;71083;51.796;10.952;2024-03-07T10:29:16;68.94;52.05;80.74;;
81666;Laerm;71083;51.796;10.952;2024-03-07T10:31:42;68.12;52.31;74.91;;
81666;Laerm;71083;51.796;10.952;2024-03-07T10:34:09;66.26;51.04;75.62;;
81666;Laerm;71083;51.796;10.952;2024-03-07T10:36:34;67.79;54.38;76.56;;
81666;Laerm;71083;51.796;10.952;2024-03-07T10:39:00;67.93;53.37;75.73;;
81666;Laerm;71083;51.796;10.952;2024-03-07T10:41:28;67.87;52.39;76.49;;
81666;Laerm;71083;51.796;10.952;2024-03-07T10:43:56;68.26;54.04;74.53;;
81666;Laerm;71083;51.796;10.952;2024-03-07T10:46:21;65.35;47.66;73.96;;
81666;Laerm;71083;51.796;10.952;2024-03-07T10:48:49;69.37;55.17;78.16;;
81666;Laerm;71083;51.796;10.952;2024-03-07T10:51:29;66.32;48.45;76.85;;
81666;Laerm;71083;51.796;10.952;2024-03-07T10:59:26;67.97;54.99;75.83;;
81666;Laerm;71083;51.796;10.952;2024-03-07T11:02:08;68.49;52.14;74.47;;
81666;Laerm;71083;51.796;10.952;2024-03-07T11:04:41;67.90;54.85;79.19;;
81666;Laerm;71083;51.796;10.952;2024-03-07T11:07:07;65.18;50.39;72.51;;
81666;Laerm;71083;51.796;10.952;2024-03-07T11:09:36;68.54;51.04;78.99;;
81666;Laerm;71083;51.796;10.952;2024-03-07T11:12:02;67.68;50.21;77.18;;
81666;Laerm;71083;51.796;10.952;2024-03-07T11:14:31;67.13;51.74;80.00;;
81666;Laerm;71083;51.796;10.952;2024-03-07T11:16:57;67.22;51.02;76.15;;
81666;Laerm;71083;51.796;10.952;2024-03-07T11:19:31;68.30;57.80;74.88;;
81666;Laerm;71083;51.796;10.952;2024-03-07T11:21:57;69.47;44.53;80.31;;
81666;Laerm;71083;51.796;10.952;2024-03-07T11:24:26;69.45;48.44;80.56;;
81666;Laerm;71083;51.796;10.952;2024-03-07T11:26:53;64.08;45.03;75.80;;
81666;Laerm;71083;51.796;10.952;2024-03-07T11:32:06;67.34;46.91;78.50;;
81666;Laerm;71083;51.796;10.952;2024-03-07T11:34:31;66.22;45.40;75.54;;
81666;Laerm;71083;51.796;10.952;2024-03-07T11:36:57;68.92;47.47;80.51;;
81666;Laerm;71083;51.796;10.952;2024-03-07T11:42:23;68.00;45.24;77.04;;
81666;Laerm;71083;51.796;10.952;2024-03-07T11:44:55;69.05;51.55;78.70;;
81666;Laerm;71083;51.796;10.952;2024-03-07T11:47:21;69.20;45.97;78.78;;
81666;Laerm;71083;51.796;10.952;2024-03-07T11:49:49;68.59;52.32;79.11;;
81666;Laerm;71083;51.796;10.952;2024-03-07T11:52:15;68.07;51.12;80.14;;
81666;Laerm;71083;51.796;10.952;2024-03-07T11:54:41;68.47;48.24;77.65;;
81666;Laerm;71083;51.796;10.952;2024-03-07T11:57:19;66.57;49.18;76.93;;
81666;Laerm;71083;51.796;10.952;2024-03-07T11:59:45;68.36;51.63;81.71;;
81666;Laerm;71083;51.796;10.952;2024-03-07T12:02:14;68.57;48.05;76.28;;
81666;Laerm;71083;51.796;10.952;2024-03-07T12:04:43;67.74;51.49;73.85;;
81666;Laerm;71083;51.796;10.952;2024-03-07T12:07:08;67.19;54.57;74.49;;
81666;Laerm;71083;51.796;10.952;2024-03-07T12:09:38;67.92;53.49;76.32;;
81666;Laerm;71083;51.796;10.952;2024-03-07T12:12:04;67.65;51.92;78.89;;
81666;Laerm;71083;51.796;10.952;2024-03-07T12:14:29;68.71;45.10;78.76;;
81666;Laerm;71083;51.796;10.952;2024-03-07T12:16:55;68.60;47.92;78.23;;
81666;Laerm;71083;51.796;10.952;2024-03-07T12:19:22;83.95;53.20;104.95;;
81666;Laerm;71083;51.796;10.952;2024-03-07T12:21:47;67.89;47.78;80.72;;
81666;Laerm;71083;51.796;10.952;2024-03-07T12:24:13;68.15;46.62;74.12;;
81666;Laerm;71083;51.796;10.952;2024-03-07T12:26:40;66.25;51.33;74.38;;
81666;Laerm;71083;51.796;10.952;2024-03-07T12:29:08;66.19;46.15;75.48;;
81666;Laerm;71083;51.796;10.952;2024-03-07T12:31:37;65.21;49.91;73.04;;
81666;Laerm;71083;51.796;10.952;2024-03-07T12:34:02;69.30;45.69;86.17;;
81666;Laerm;71083;51.796;10.952;2024-03-07T12:36:29;69.18;54.88;79.02;;
81666;Laerm;71083;51.796;10.952;2024-03-07T12:38:59;68.64;49.69;83.88;;
81666;Laerm;71083;51.796;10.952;2024-03-07T12:41:34;68.60;50.26;79.54;;
81666;Laerm;71083;51.796;10.952;2024-03-07T12:43:59;70.21;51.36;81.66;;
81666;Laerm;71083;51.796;10.952;2024-03-07T12:46:25;66.51;56.31;76.88;;
81666;Laerm;71083;51.796;10.952;2024-03-07T12:48:50;72.70;48.82;85.97;;
81666;Laerm;71083;51.796;10.952;2024-03-07T12:51:15;68.26;50.40;79.52;;
81666;Laerm;71083;51.796;10.952;2024-03-07T12:53:44;67.71;45.87;76.03;;
81666;Laerm;71083;51.796;10.952;2024-03-07T12:56:09;68.28;48.85;76.49;;
81666;Laerm;71083;51.796;10.952;2024-03-07T12:58:34;68.14;53.29;79.58;;
81666;Laerm;71083;51.796;10.952;2024-03-07T13:00:59;68.11;48.42;75.21;;
81666;Laerm;71083;51.796;10.952;2024-03-07T13:03:25;68.34;52.84;78.01;;
81666;Laerm;71083;51.796;10.952;2024-03-07T13:05:55;86.33;53.65;104.78;;
81666;Laerm;71083;51.796;10.952;2024-03-07T13:08:21;65.65;51.60;73.36;;
81666;Laerm;71083;51.796;10.952;2024-03-07T13:10:50;68.33;49.36;76.66;;
81666;Laerm;71083;51.796;10.952;2024-03-07T13:13:15;68.96;51.88;80.52;;
81666;Laerm;71083;51.796;10.952;2024-03-07T13:15:41;69.25;55.32;78.77;;
81666;Laerm;71083;51.796;10.952;2024-03-07T13:18:07;76.82;54.95;97.84;;
81666;Laerm;71083;51.796;10.952;2024-03-07T13:20:34;83.57;51.88;106.30;;
81666;Laerm;71083;51.796;10.952;2024-03-07T13:22:59;69.17;45.72;75.17;;
81666;Laerm;71083;51.796;10.952;2024-03-07T13:25:26;68.30;51.13;77.50;;
81666;Laerm;71083;51.796;10.952;2024-03-07T13:28:05;66.97;51.67;74.24;;
81666;Laerm;71083;51.796;10.952;2024-03-07T13:30:36;69.59;55.72;80.25;;
81666;Laerm;71083;51.796;10.952;2024-03-07T13:33:02;71.54;56.78;83.55;;
81666;Laerm;71083;51.796;10.952;2024-03-07T13:35:28;66.27;51.66;73.53;;
81666;Laerm;71083;51.796;10.952;2024-03-07T13:37:54;70.13;56.25;83.04;;